Time;durP1;ratioP1;P1;durP2;ratioP2;P2;SDS_P1;SDS_P2;PMS_P1;PMS_P2;Temp;Humidity;BMP_temperature;BMP_pressure;BME280_temperature;BME280_humidity;BME280_pressure;Samples;Min_cycle;Max_cycle;Signal;HPM_P1;HPM_P2
2024/02/23 00:01:32;;;;;;;0.53;0.53;;;;;;;-145.69;64.41;52325.56;5114414;28;20240;-78
2024/02/23 00:03:58;;;;;;;1.13;0.60;;;;;;;-145.69;65.56;52303.78;5114449;28;20243;-77
2024/02/23 00:06:27;;;;;;;2.60;0.60;;;;;;;-145.69;65.90;52333.47;5114736;28;20281;-78
2024/02/23 00:08:54;;;;;;;0.53;0.50;;;;;;;-145.69;67.06;52323.59;5114867;28;20284;-78
2024/02/23 00:11:22;;;;;;;2.30;0.63;;;;;;;-145.69;67.30;52313.69;5114756;28;20207;-77
2024/02/23 00:13:48;;;;;;;1.70;0.63;;;;;;;-145.69;67.82;52355.28;5114593;28;20208;-79
2024/02/23 00:16:15;;;;;;;0.83;0.73;;;;;;;-145.69;67.16;52321.59;5114667;28;20255;-79
2024/02/23 00:18:41;;;;;;;0.90;0.70;;;;;;;-145.69;68.51;52317.66;5114535;28;20204;-78
2024/02/23 00:21:08;;;;;;;0.50;0.50;;;;;;;-145.69;68.69;52367.16;5114356;28;20278;-80
2024/02/23 00:23:34;;;;;;;2.00;0.50;;;;;;;-145.69;68.12;52325.56;5114341;28;20598;-78
2024/02/23 00:26:01;;;;;;;1.23;0.60;;;;;;;-145.69;67.80;52349.31;5114325;28;20274;-78
2024/02/23 00:28:28;;;;;;;0.60;0.60;;;;;;;-145.69;67.85;52353.28;5114561;28;20506;-81
2024/02/23 00:30:55;;;;;;;0.67;0.63;;;;;;;-145.69;68.16;52345.38;5114213;28;20701;-78
2024/02/23 00:33:21;;;;;;;0.53;0.53;;;;;;;-145.69;68.08;52345.38;5114181;28;20205;-80
2024/02/23 00:35:48;;;;;;;0.50;0.50;;;;;;;-145.69;68.08;52319.63;5113467;28;20284;-78
2024/02/23 00:38:14;;;;;;;0.43;0.43;;;;;;;-145.69;68.79;52317.66;5114273;28;20240;-79
2024/02/23 00:40:41;;;;;;;0.70;0.60;;;;;;;-145.69;69.15;52349.31;5114045;28;20656;-80
2024/02/23 00:43:07;;;;;;;0.70;0.70;;;;;;;-145.69;68.48;52341.41;5114049;28;20206;-79
2024/02/23 00:45:35;;;;;;;0.70;0.70;;;;;;;-145.69;69.06;52333.47;5113870;28;20233;-79
2024/02/23 00:48:02;;;;;;;1.00;0.70;;;;;;;-145.69;69.59;52331.50;5113943;28;20198;-79
2024/02/23 00:50:28;;;;;;;0.70;0.70;;;;;;;-145.69;68.87;52345.38;5113667;28;20708;-79
2024/02/23 00:52:55;;;;;;;0.73;0.73;;;;;;;-145.69;69.46;52331.50;5113825;28;20784;-80
2024/02/23 00:55:21;;;;;;;2.50;1.10;;;;;;;-145.69;69.39;52339.44;5113607;28;20205;-79
2024/02/23 00:57:48;;;;;;;1.83;1.00;;;;;;;-145.69;69.19;52319.63;5113360;28;20197;-79
2024/02/23 01:00:15;;;;;;;0.80;0.80;;;;;;;-145.69;70.40;52351.31;5112416;28;20246;-80
2024/02/23 01:02:43;;;;;;;0.80;0.80;;;;;;;-145.69;70.01;52305.75;5113772;28;20246;-80
2024/02/23 01:05:10;;;;;;;0.70;0.70;;;;;;;-145.69;69.74;52357.25;5113402;28;20193;-80
2024/02/23 01:07:37;;;;;;;1.00;0.90;;;;;;;-145.69;69.13;52337.44;5113593;28;20278;-78
2024/02/23 01:10:03;;;;;;;0.60;0.60;;;;;;;-145.69;69.14;52325.56;5097258;28;20206;-80
2024/02/23 01:12:30;;;;;;;3.90;0.60;;;;;;;-145.69;69.31;52371.13;5105090;28;20216;-80
2024/02/23 01:14:56;;;;;;;0.83;0.53;;;;;;;-145.69;69.49;52349.31;5112591;28;20804;-80
2024/02/23 01:17:23;;;;;;;1.50;0.60;;;;;;;-145.69;69.17;52319.63;5113796;28;20209;-77
2024/02/23 01:19:51;;;;;;;0.60;0.60;;;;;;;-145.69;68.41;52351.31;5113609;28;20200;-78
2024/02/23 01:22:18;;;;;;;1.90;0.60;;;;;;;-145.69;67.83;52337.44;5112866;28;20675;-79
2024/02/23 01:24:44;;;;;;;2.73;0.70;;;;;;;-145.69;67.87;52313.69;5112909;28;20198;-78
2024/02/23 01:27:11;;;;;;;1.27;0.53;;;;;;;-145.69;67.83;52343.38;5113116;28;20271;-78
2024/02/23 01:29:37;;;;;;;0.47;0.47;;;;;;;-145.69;67.59;52361.22;5113009;28;20204;-77
2024/02/23 01:32:04;;;;;;;1.37;0.60;;;;;;;-145.69;68.14;52355.28;5113046;28;20682;-79
2024/02/23 01:34:30;;;;;;;0.90;0.70;;;;;;;-145.69;67.69;52333.47;5112917;28;20201;-78
2024/02/23 01:36:58;;;;;;;1.50;0.60;;;;;;;-145.69;68.57;52349.31;5112771;28;20201;-78
2024/02/23 01:39:24;;;;;;;1.67;0.50;;;;;;;-145.69;68.44;52361.22;5113225;28;20256;-77
2024/02/23 01:41:51;;;;;;;0.87;0.60;;;;;;;-145.69;68.56;52307.75;5113125;28;20201;-79
2024/02/23 01:44:20;;;;;;;0.57;0.57;;;;;;;-145.69;69.61;52345.38;5113112;28;20201;-80
2024/02/23 01:46:47;;;;;;;1.03;0.60;;;;;;;-145.69;68.97;52305.75;5112949;28;20330;-80
2024/02/23 01:49:14;;;;;;;0.60;0.60;;;;;;;-145.69;69.25;52353.28;5112921;28;20618;-78
2024/02/23 01:51:41;;;;;;;0.63;0.63;;;;;;;-145.69;68.74;52325.56;5113181;28;20197;-79
2024/02/23 01:54:10;;;;;;;0.40;0.40;;;;;;;-145.69;68.20;52355.28;5112812;28;20205;-78
2024/02/23 01:56:39;;;;;;;0.40;0.40;;;;;;;-145.69;68.39;52337.44;5112756;28;20197;-80
2024/02/23 01:59:07;;;;;;;0.57;0.50;;;;;;;-145.69;68.38;52355.28;5112787;28;20205;-79
2024/02/23 02:01:33;;;;;;;0.60;0.60;;;;;;;-145.69;68.40;52343.38;5112968;28;20213;-79
2024/02/23 02:04:00;;;;;;;0.93;0.70;;;;;;;-145.69;69.35;52333.47;5112458;28;20201;-78
2024/02/23 02:06:26;;;;;;;1.43;0.80;;;;;;;-145.69;68.30;52329.53;5112811;28;20580;-78
2024/02/23 02:08:53;;;;;;;0.80;0.80;;;;;;;-145.69;68.69;52349.31;5111886;28;20291;-78
2024/02/23 02:11:21;;;;;;;0.50;0.50;;;;;;;-145.69;68.20;52313.69;5112864;28;20682;-78
2024/02/23 02:13:47;;;;;;;0.60;0.60;;;;;;;-145.69;68.48;52353.28;5112722;28;20208;-78
2024/02/23 02:16:13;;;;;;;0.70;0.70;;;;;;;-145.69;68.06;52357.25;5112688;28;20212;-78
2024/02/23 02:18:40;;;;;;;3.30;0.80;;;;;;;-145.69;68.07;52293.88;5112458;28;20603;-79
2024/02/23 02:21:06;;;;;;;0.90;0.60;;;;;;;-145.69;67.47;52349.31;5112657;28;20201;-78
2024/02/23 02:23:33;;;;;;;1.63;0.70;;;;;;;-145.69;67.63;52349.31;5112629;28;20205;-79
2024/02/23 02:26:00;;;;;;;2.10;0.50;;;;;;;-145.69;67.14;52333.47;5112271;28;20247;-78
2024/02/23 02:28:27;;;;;;;0.70;0.70;;;;;;;-145.69;68.00;52315.66;5112713;28;20201;-78
2024/02/23 02:30:54;;;;;;;1.57;0.70;;;;;;;-145.69;68.15;52343.38;5112753;28;20208;-78
2024/02/23 02:33:21;;;;;;;0.60;0.60;;;;;;;-145.69;68.23;52349.31;5112477;28;20204;-78
2024/02/23 02:35:49;;;;;;;0.50;0.50;;;;;;;-145.69;68.79;52357.25;5112538;28;20232;-78
2024/02/23 02:38:16;;;;;;;0.80;0.67;;;;;;;-145.69;68.33;52293.88;5112062;28;20221;-78
2024/02/23 02:40:42;;;;;;;3.27;0.87;;;;;;;-145.69;68.69;52361.22;5112667;28;20205;-78
2024/02/23 02:43:09;;;;;;;4.57;0.80;;;;;;;-145.69;68.29;52327.53;5112305;28;20266;-79
2024/02/23 02:45:36;;;;;;;1.00;0.70;;;;;;;-145.69;68.62;52347.34;5112249;28;20663;-79
2024/02/23 02:48:04;;;;;;;2.47;0.60;;;;;;;-145.69;68.27;52337.44;5112594;28;20247;-78
2024/02/23 02:50:30;;;;;;;1.30;0.70;;;;;;;-145.69;68.35;52321.59;5112216;28;20699;-81
2024/02/23 02:52:57;;;;;;;0.90;0.60;;;;;;;-145.69;68.26;52365.16;5112231;28;20205;-80
2024/02/23 02:55:23;;;;;;;3.13;0.73;;;;;;;-145.69;68.31;52321.59;5112422;28;20549;-82
2024/02/23 02:57:50;;;;;;;2.67;0.60;;;;;;;-145.69;68.16;52369.13;5111971;28;20197;-79
2024/02/23 03:00:16;;;;;;;0.93;0.73;;;;;;;-145.69;68.10;52365.16;5115654;28;20197;-80
2024/02/23 03:02:44;;;;;;;0.80;0.50;;;;;;;-145.69;68.94;52381.00;5115859;28;20205;-79
2024/02/23 03:05:10;;;;;;;2.27;0.80;;;;;;;-145.69;68.57;52367.16;5115862;28;20200;-80
2024/02/23 03:07:37;;;;;;;0.60;0.60;;;;;;;-145.69;68.62;52329.53;5115603;28;20275;-80
2024/02/23 03:10:04;;;;;;;2.40;0.73;;;;;;;-145.69;68.69;52341.41;5115992;28;20206;-80
2024/02/23 03:12:30;;;;;;;0.70;0.70;;;;;;;-145.69;68.40;52321.59;5115851;28;20258;-79
2024/02/23 03:14:57;;;;;;;2.90;0.60;;;;;;;-145.69;68.43;52341.41;5114936;28;20228;-80
2024/02/23 03:17:23;;;;;;;0.83;0.70;;;;;;;-145.69;68.21;52325.56;5115616;28;20204;-81
2024/02/23 03:19:51;;;;;;;0.93;0.60;;;;;;;-145.69;68.23;52333.47;5115733;28;20201;-80
2024/02/23 03:22:18;;;;;;;1.43;0.60;;;;;;;-145.69;67.77;52349.31;5115308;28;20655;-80
2024/02/23 03:24:44;;;;;;;0.70;0.50;;;;;;;-145.69;68.22;52333.47;5115593;28;20647;-79
2024/02/23 03:27:10;;;;;;;2.10;0.70;;;;;;;-145.69;67.69;52335.47;5115370;27;20634;-80
2024/02/23 03:29:39;;;;;;;1.13;0.77;;;;;;;-145.69;67.80;52347.34;5114515;27;20201;-80
2024/02/23 03:32:06;;;;;;;1.00;0.70;;;;;;;-145.69;68.05;52329.53;5115652;28;20602;-81
2024/02/23 03:34:33;;;;;;;5.20;0.73;;;;;;;-145.69;68.06;52369.13;5115044;28;20707;-80
2024/02/23 03:37:02;;;;;;;0.80;0.80;;;;;;;-145.69;68.11;52329.53;5115154;28;20204;-80
2024/02/23 03:39:29;;;;;;;3.50;0.70;;;;;;;-145.69;68.25;52333.47;5115427;28;20225;-80
2024/02/23 03:41:55;;;;;;;5.27;0.77;;;;;;;-145.69;68.02;52331.50;5115347;28;20232;-79
2024/02/23 03:44:22;;;;;;;1.00;0.70;;;;;;;-145.69;67.72;52333.47;5115350;28;20602;-79
2024/02/23 03:46:48;;;;;;;0.60;0.60;;;;;;;-145.69;68.07;52333.47;5115215;28;20221;-79
2024/02/23 03:49:14;;;;;;;0.70;0.60;;;;;;;-145.69;68.29;52321.59;5114836;28;20204;-80
2024/02/23 03:51:42;;;;;;;4.00;0.60;;;;;;;-145.69;68.47;52337.44;5115076;28;20197;-79
2024/02/23 03:54:10;;;;;;;0.60;0.60;;;;;;;-145.69;68.69;52343.38;5115216;28;20193;-80
2024/02/23 03:56:40;;;;;;;0.93;0.90;;;;;;;-145.69;67.87;52321.59;5114651;28;20201;-80
2024/02/23 03:59:09;;;;;;;1.63;0.70;;;;;;;-145.69;68.05;52319.63;5114043;28;20273;-80
2024/02/23 04:01:35;;;;;;;0.83;0.70;;;;;;;-145.69;67.67;52317.66;5114144;28;20213;-79
2024/02/23 04:04:02;;;;;;;1.27;0.70;;;;;;;-145.69;68.27;52329.53;5114863;28;20664;-80
2024/02/23 04:06:28;;;;;;;0.73;0.70;;;;;;;-145.69;68.17;52333.47;5114419;28;20271;-79
2024/02/23 04:08:55;;;;;;;1.47;0.60;;;;;;;-145.69;67.59;52329.53;5114592;28;20201;-79
2024/02/23 04:11:23;;;;;;;3.73;0.87;;;;;;;-145.69;67.56;52341.41;5114844;28;20435;-79
2024/02/23 04:13:49;;;;;;;2.08;0.75;;;;;;;-145.69;68.82;52307.75;5112876;28;20466;-79
2024/02/23 04:16:16;;;;;;;5.30;1.10;;;;;;;-145.69;67.21;52351.31;5114134;28;20212;-80
2024/02/23 04:18:42;;;;;;;2.97;0.93;;;;;;;-145.69;67.28;52297.84;5114627;28;20644;-80
2024/02/23 04:21:08;;;;;;;3.37;1.03;;;;;;;-145.69;66.45;52353.28;5114383;28;20560;-79
2024/02/23 04:23:35;;;;;;;1.70;0.73;;;;;;;-145.69;66.48;52349.31;5114388;28;20197;-79
2024/02/23 04:26:01;;;;;;;6.80;0.80;;;;;;;-145.69;65.83;52353.28;5113911;28;20201;-81
2024/02/23 04:28:30;;;;;;;8.07;1.37;;;;;;;-145.69;64.93;52361.22;5114283;28;20626;-81
2024/02/23 04:30:57;;;;;;;4.10;0.80;;;;;;;-145.69;65.75;52361.22;5113455;28;20243;-79
2024/02/23 04:33:23;;;;;;;1.77;0.80;;;;;;;-145.69;66.66;52349.31;5114236;28;20263;-79
2024/02/23 04:35:50;;;;;;;0.90;0.70;;;;;;;-145.69;67.33;52325.56;5114259;28;20201;-80
2024/02/23 04:38:16;;;;;;;0.90;0.70;;;;;;;-145.69;67.35;52369.13;5114143;28;20201;-79
2024/02/23 04:40:43;;;;;;;1.40;0.70;;;;;;;-145.69;67.66;52369.13;5113964;28;20204;-80
2024/02/23 04:43:09;;;;;;;4.50;0.77;;;;;;;-145.69;67.70;52353.28;5113966;28;20276;-80
2024/02/23 04:45:37;;;;;;;4.53;0.80;;;;;;;-145.69;67.46;52347.34;5113380;28;20655;-79
2024/02/23 04:48:04;;;;;;;2.03;1.00;;;;;;;-145.69;67.25;52351.31;5114069;28;20260;-79
2024/02/23 04:50:30;;;;;;;3.13;0.93;;;;;;;-145.69;67.35;52343.38;5113624;28;20741;-79
2024/02/23 04:52:57;;;;;;;1.43;0.83;;;;;;;-145.69;67.00;52341.41;5113931;28;20201;-79
2024/02/23 04:55:23;;;;;;;1.10;0.80;;;;;;;-145.69;67.03;52363.19;5113955;28;20285;-79
2024/02/23 04:57:50;;;;;;;3.40;1.20;;;;;;;-145.69;66.72;52345.38;5114003;28;20578;-79
2024/02/23 05:00:17;;;;;;;1.07;0.97;;;;;;;-145.69;67.05;52355.28;5113694;28;20201;-79
2024/02/23 05:02:47;;;;;;;4.53;1.20;;;;;;;-145.69;66.80;52317.66;5113449;28;20204;-79
2024/02/23 05:05:14;;;;;;;3.70;1.27;;;;;;;-145.69;66.91;52341.41;5113660;28;20197;-79
2024/02/23 05:07:40;;;;;;;3.10;1.40;;;;;;;-145.69;65.89;52321.59;5113400;28;20229;-79
2024/02/23 05:10:08;;;;;;;4.97;1.03;;;;;;;-145.69;65.43;52339.44;5112335;28;20667;-79
2024/02/23 05:12:34;;;;;;;2.40;1.00;;;;;;;-145.69;66.03;52341.41;5113478;27;20217;-79
2024/02/23 05:15:00;;;;;;;1.10;1.00;;;;;;;-145.69;66.30;52325.56;5113536;28;20250;-79
2024/02/23 05:17:27;;;;;;;4.50;1.27;;;;;;;-145.69;66.15;52388.94;5113840;28;20202;-79
2024/02/23 05:19:55;;;;;;;4.23;1.80;;;;;;;-145.69;66.39;52341.41;5113186;28;20632;-79
2024/02/23 05:22:21;;;;;;;4.17;2.20;;;;;;;-145.69;66.53;52384.97;5112565;28;20194;-79
2024/02/23 05:24:48;;;;;;;3.10;1.70;;;;;;;-145.69;66.56;52363.19;5113138;28;20583;-79
2024/02/23 05:27:15;;;;;;;5.80;1.43;;;;;;;-145.69;66.49;52357.25;5112872;28;20209;-79
2024/02/23 05:29:41;;;;;;;5.00;1.40;;;;;;;-145.69;66.44;52345.38;5113052;28;20606;-79
2024/02/23 05:32:08;;;;;;;10.33;1.27;;;;;;;-145.69;66.12;52327.53;5112359;28;20209;-78
2024/02/23 05:34:35;;;;;;;1.30;0.90;;;;;;;-145.69;65.83;52329.53;5112477;28;20208;-78
2024/02/23 05:37:03;;;;;;;1.10;1.00;;;;;;;-145.69;66.20;52371.13;5112928;28;20197;-79
2024/02/23 05:39:29;;;;;;;2.93;1.50;;;;;;;-145.69;66.74;52357.25;5112738;28;20780;-79
2024/02/23 05:41:57;;;;;;;12.50;4.50;;;;;;;-145.69;66.28;52337.44;5112899;27;20295;-78
2024/02/23 05:44:23;;;;;;;6.87;2.73;;;;;;;-145.69;66.16;52323.59;5112896;28;20193;-78
2024/02/23 05:46:49;;;;;;;6.63;2.60;;;;;;;-145.69;66.24;52353.28;5113212;28;20232;-77
2024/02/23 05:49:16;;;;;;;5.63;2.20;;;;;;;-145.69;66.79;52361.22;5112807;28;20209;-78
2024/02/23 05:51:43;;;;;;;4.50;1.40;;;;;;;-145.69;67.05;52377.06;5112938;28;20201;-78
2024/02/23 05:54:11;;;;;;;3.70;1.30;;;;;;;-145.69;67.03;52327.53;5112858;28;20281;-78
2024/02/23 05:56:38;;;;;;;4.83;1.77;;;;;;;-145.69;67.21;52357.25;5112464;28;20181;-78
2024/02/23 05:59:06;;;;;;;2.73;1.40;;;;;;;-145.69;66.66;52357.25;5112423;28;20248;-78
2024/02/23 06:01:32;;;;;;;5.33;1.50;;;;;;;-145.69;67.23;52353.28;5112740;28;20190;-78
2024/02/23 06:03:59;;;;;;;5.43;1.97;;;;;;;-145.69;67.08;52315.66;5112969;28;20197;-78
2024/02/23 06:06:25;;;;;;;3.63;1.50;;;;;;;-145.69;66.89;52349.31;5112515;28;20201;-78
2024/02/23 06:08:51;;;;;;;4.73;1.70;;;;;;;-145.69;66.85;52363.19;5112670;28;20225;-78
2024/02/23 06:11:19;;;;;;;3.23;1.10;;;;;;;-145.69;66.75;52355.28;5112947;28;20203;-78
2024/02/23 06:13:46;;;;;;;5.57;1.40;;;;;;;-145.69;66.55;52353.28;5112627;28;20205;-78
2024/02/23 06:16:13;;;;;;;5.17;1.30;;;;;;;-145.69;66.80;52359.22;5112081;28;20198;-78
2024/02/23 06:18:40;;;;;;;5.57;1.13;;;;;;;-145.69;66.60;52361.22;5112879;28;20631;-78
2024/02/23 06:21:13;;;;;;;0.83;0.83;;;;;;;-145.69;66.28;52335.47;5112499;28;20333;-78
2024/02/23 06:23:39;;;;;;;5.60;1.33;;;;;;;-145.69;66.86;52353.28;5112709;28;20197;-77
2024/02/23 06:26:06;;;;;;;4.17;0.97;;;;;;;-145.69;66.52;52373.09;5112646;28;20227;-78
2024/02/23 06:28:34;;;;;;;4.10;0.90;;;;;;;-145.69;66.53;52323.59;5112422;28;20579;-78
2024/02/23 06:31:01;;;;;;;3.17;1.37;;;;;;;-145.69;66.99;52321.59;5112720;28;20205;-80
2024/02/23 06:33:27;;;;;;;2.30;1.27;;;;;;;-145.69;67.17;52367.16;5112856;28;20478;-79
2024/02/23 06:35:54;;;;;;;1.13;0.80;;;;;;;-145.69;67.52;52335.47;5116131;28;20203;-77
2024/02/23 06:38:20;;;;;;;2.10;1.20;;;;;;;-145.69;67.15;52333.47;5116518;28;20221;-78
2024/02/23 06:40:47;;;;;;;3.00;1.10;;;;;;;-145.69;67.03;52319.63;5116660;28;20205;-78
2024/02/23 06:43:13;;;;;;;1.33;1.00;;;;;;;-145.69;67.06;52375.06;5116443;28;20229;-78
2024/02/23 06:45:41;;;;;;;1.60;0.90;;;;;;;-145.69;67.33;52347.34;5116151;27;20595;-80
2024/02/23 06:48:10;;;;;;;0.80;0.80;;;;;;;-145.69;67.45;52381.00;5116233;27;20236;-80
2024/02/23 06:50:37;;;;;;;0.90;0.90;;;;;;;-145.69;67.50;52345.38;5115875;28;20237;-80
2024/02/23 06:53:04;;;;;;;1.20;0.90;;;;;;;-145.69;67.42;52384.97;5116509;28;20198;-79
2024/02/23 06:55:30;;;;;;;3.30;1.30;;;;;;;-145.69;67.80;52355.28;5116386;28;20547;-80
2024/02/23 06:57:57;;;;;;;6.47;1.63;;;;;;;-145.69;67.80;52353.28;5115662;28;20194;-80
2024/02/23 07:00:23;;;;;;;3.63;1.67;;;;;;;-145.69;67.23;52373.09;5115645;28;20644;-79
2024/02/23 07:02:51;;;;;;;6.37;2.03;;;;;;;-145.69;67.17;52339.44;5115967;27;20202;-81
2024/02/23 07:05:18;;;;;;;5.33;2.40;;;;;;;-145.69;66.98;52361.22;5116114;28;20197;-80
2024/02/23 07:07:44;;;;;;;4.57;2.00;;;;;;;-145.69;67.55;52329.53;5115519;28;20217;-80
2024/02/23 07:10:12;;;;;;;4.13;1.73;;;;;;;-145.69;67.70;52359.22;5115849;28;20209;-80
2024/02/23 07:12:38;;;;;;;3.83;1.43;;;;;;;-145.69;67.83;52353.28;5116068;28;20225;-80
2024/02/23 07:15:05;;;;;;;3.70;1.60;;;;;;;-145.69;68.22;52349.31;5115698;28;20193;-80
2024/02/23 07:17:32;;;;;;;4.10;1.70;;;;;;;-145.69;67.88;52337.44;5115498;28;20201;-80
2024/02/23 07:20:05;;;;;;;5.00;1.70;;;;;;;-145.69;68.01;52357.25;5115990;28;20209;-80
2024/02/23 07:22:31;;;;;;;2.37;1.13;;;;;;;-145.69;68.09;52357.25;5115625;28;20285;-78
2024/02/23 07:24:58;;;;;;;4.70;1.20;;;;;;;-145.69;67.69;52325.56;5114694;27;20226;-78
2024/02/23 07:27:24;;;;;;;3.47;1.47;;;;;;;-145.69;67.65;52349.31;5115323;28;20609;-78
2024/02/23 07:29:51;;;;;;;1.93;1.40;;;;;;;-145.69;67.53;52359.22;5115243;28;20205;-79
2024/02/23 07:32:17;;;;;;;2.77;1.40;;;;;;;-145.69;67.83;52353.28;5115593;28;20194;-78
2024/02/23 07:34:44;;;;;;;2.73;1.10;;;;;;;-145.69;66.83;52349.31;5115247;28;20201;-79
2024/02/23 07:37:11;;;;;;;4.10;1.30;;;;;;;-145.69;65.58;52313.69;5115498;28;20197;-80
2024/02/23 07:39:38;;;;;;;3.17;1.13;;;;;;;-145.69;65.41;52333.47;5114821;28;20246;-80
2024/02/23 07:42:05;;;;;;;4.47;1.77;;;;;;;-145.69;65.89;52351.31;5115115;28;20205;-80
2024/02/23 07:44:32;;;;;;;2.63;1.17;;;;;;;-145.69;65.23;52347.34;5114656;28;20236;-79
2024/02/23 07:46:59;;;;;;;4.73;1.37;;;;;;;-145.69;65.73;52388.94;5115070;28;20205;-80
2024/02/23 07:49:27;;;;;;;2.63;1.50;;;;;;;-145.69;64.55;52333.47;5115152;28;20240;-82
2024/02/23 07:51:53;;;;;;;5.80;1.53;;;;;;;-145.69;65.10;52361.22;5115255;28;20293;-81
2024/02/23 07:54:21;;;;;;;1.97;1.40;;;;;;;-145.69;65.97;52363.19;5114914;28;20205;-80
2024/02/23 07:56:47;;;;;;;5.57;1.30;;;;;;;-145.69;65.83;52321.59;5114833;28;20208;-79
2024/02/23 07:59:14;;;;;;;2.13;1.17;;;;;;;-145.69;66.45;52355.28;5114541;28;20594;-79
2024/02/23 08:01:41;;;;;;;5.53;1.40;;;;;;;-145.69;65.27;52325.56;5114279;28;20204;-79
2024/02/23 08:04:07;;;;;;;3.13;1.17;;;;;;;-145.69;65.34;52343.38;5114577;28;20258;-79
2024/02/23 08:06:34;;;;;;;8.17;1.70;;;;;;;-145.69;65.21;52345.38;5114433;28;20197;-81
2024/02/23 08:09:00;;;;;;;6.27;1.90;;;;;;;-145.69;64.19;52363.19;5114639;28;20309;-80
2024/02/23 08:11:28;;;;;;;10.83;1.43;;;;;;;-145.69;64.87;52365.16;5114672;28;20206;-80
2024/02/23 08:13:54;;;;;;;4.93;1.07;;;;;;;-145.69;63.90;52363.19;5114098;28;20190;-80
2024/02/23 08:16:21;;;;;;;2.47;0.93;;;;;;;-145.69;64.41;52303.78;5114794;28;20201;-80
2024/02/23 08:18:47;;;;;;;5.27;2.30;;;;;;;-145.69;64.33;52347.34;5114408;28;20201;-80
2024/02/23 08:21:13;;;;;;;12.30;3.97;;;;;;;-145.69;65.72;52309.72;5114321;28;20242;-81
2024/02/23 08:23:40;;;;;;;10.37;2.23;;;;;;;-145.69;65.91;52371.13;5114506;28;20204;-82
2024/02/23 08:26:07;;;;;;;2.97;1.60;;;;;;;-145.69;66.13;52345.38;5114109;28;20196;-81
2024/02/23 08:28:35;;;;;;;10.80;1.53;;;;;;;-145.69;65.22;52339.44;5113956;28;20225;-80
2024/02/23 08:31:01;;;;;;;8.33;1.40;;;;;;;-145.69;63.23;52339.44;5113964;28;20622;-81
2024/02/23 08:33:27;;;;;;;3.73;1.37;;;;;;;-145.69;64.63;52331.50;5114153;28;20201;-81
2024/02/23 08:35:54;;;;;;;3.77;1.33;;;;;;;-145.69;64.14;52384.97;5114057;28;20197;-81
2024/02/23 08:38:21;;;;;;;11.30;1.53;;;;;;;-145.69;63.31;52341.41;5113631;28;20202;-81
2024/02/23 08:40:47;;;;;;;4.33;1.37;;;;;;;-145.69;64.29;52353.28;5114004;28;20225;-80
2024/02/23 08:43:14;;;;;;;9.17;1.53;;;;;;;-145.69;64.32;52335.47;5114242;28;20206;-81
2024/02/23 08:45:42;;;;;;;4.30;0.90;;;;;;;-145.69;63.64;52333.47;5114316;28;20193;-81
2024/02/23 08:48:08;;;;;;;7.13;1.80;;;;;;;-145.69;62.07;52345.38;5114057;28;20228;-81
2024/02/23 08:50:35;;;;;;;6.97;1.50;;;;;;;-145.69;61.27;52349.31;5113574;28;20225;-81
2024/02/23 08:53:02;;;;;;;6.53;1.60;;;;;;;-145.69;62.24;52325.56;5113887;28;20204;-81
2024/02/23 08:55:29;;;;;;;11.37;1.80;;;;;;;-145.69;61.46;52337.44;5113392;28;20186;-81
2024/02/23 08:57:55;;;;;;;7.90;1.57;;;;;;;-145.69;63.36;52321.59;5113002;28;20197;-80
2024/02/23 09:00:22;;;;;;;5.23;2.33;;;;;;;-145.69;61.98;52349.31;5113430;28;20194;-80
2024/02/23 09:02:50;;;;;;;5.40;2.13;;;;;;;-145.69;61.66;52317.66;5113296;28;20201;-82
2024/02/23 09:05:16;;;;;;;4.43;1.40;;;;;;;-145.69;60.24;52363.19;5112833;28;20197;-81
2024/02/23 09:07:43;;;;;;;6.87;1.40;;;;;;;-145.69;60.81;52345.38;5113148;28;20652;-80
2024/02/23 09:10:10;;;;;;;6.90;1.60;;;;;;;-145.69;59.18;52317.66;5113635;28;20201;-80
2024/02/23 09:12:36;;;;;;;6.37;1.47;;;;;;;-145.69;60.89;52325.56;5113749;28;20209;-79
2024/02/23 09:15:03;;;;;;;16.97;1.73;;;;;;;-145.69;61.75;52313.69;5112945;28;20271;-79
2024/02/23 09:17:30;;;;;;;9.33;2.67;;;;;;;-145.69;61.82;52325.56;5113078;28;20617;-80
2024/02/23 09:19:57;;;;;;;15.77;2.97;;;;;;;-145.69;61.94;52297.84;5113184;28;20258;-80
2024/02/23 09:22:24;;;;;;;13.33;2.30;;;;;;;-145.69;61.86;52295.84;5113264;28;20197;-80
2024/02/23 09:24:50;;;;;;;6.23;1.50;;;;;;;-145.69;57.33;52301.81;5113605;28;20598;-79
2024/02/23 09:27:17;;;;;;;4.13;1.20;;;;;;;-145.69;58.74;52305.75;5113388;28;20197;-79
2024/02/23 09:29:43;;;;;;;12.10;1.80;;;;;;;-145.69;55.06;52293.88;5113055;28;20229;-80
2024/02/23 09:32:09;;;;;;;9.03;1.37;;;;;;;-145.69;59.74;52321.59;5113154;28;20239;-79
2024/02/23 09:34:36;;;;;;;7.30;1.50;;;;;;;-145.69;54.79;52309.72;5113114;28;20213;-79
2024/02/23 09:37:04;;;;;;;5.90;2.03;;;;;;;-145.69;54.62;52295.84;5113127;28;20205;-79
2024/02/23 09:39:30;;;;;;;5.53;1.63;;;;;;;-145.69;56.64;52285.97;5113408;28;20205;-79
2024/02/23 09:41:57;;;;;;;15.53;4.47;;;;;;;-145.69;57.44;52295.84;5113075;28;20208;-79
2024/02/23 09:44:24;;;;;;;11.83;4.43;;;;;;;-145.69;56.02;52301.81;5112789;28;20259;-79
2024/02/23 09:46:51;;;;;;;10.73;1.47;;;;;;;-145.69;59.37;52305.75;5113194;28;20254;-79
2024/02/23 09:49:17;;;;;;;5.67;1.50;;;;;;;-145.69;56.82;52285.97;5113051;28;20242;-79
2024/02/23 09:51:44;;;;;;;7.37;1.63;;;;;;;-145.69;57.80;52309.72;5112777;28;20672;-80
2024/02/23 09:54:12;;;;;;;7.50;1.97;;;;;;;-145.69;60.43;52307.75;5113026;28;20292;-79
2024/02/23 09:56:40;;;;;;;5.13;1.83;;;;;;;-145.69;55.77;52301.81;5113049;28;20250;-80
2024/02/23 09:59:06;;;;;;;7.53;1.83;;;;;;;-145.69;53.91;52293.88;5110935;28;20197;-80
2024/02/23 10:01:33;;;;;;;6.90;1.60;;;;;;;-145.69;56.50;52283.97;5112911;28;20209;-79
2024/02/23 10:04:03;;;;;;;5.63;1.17;;;;;;;-145.69;53.74;52266.16;5112607;28;20205;-79
2024/02/23 10:06:29;;;;;;;5.57;1.17;;;;;;;-145.69;53.15;52293.88;5112832;28;20201;-79
2024/02/23 10:08:56;;;;;;;4.07;1.03;;;;;;;-145.69;55.49;52278.03;5115540;28;20221;-78
2024/02/23 10:11:25;;;;;;;8.97;1.20;;;;;;;-145.69;56.33;52262.19;5117142;28;20197;-79
2024/02/23 10:13:52;;;;;;;4.70;1.07;;;;;;;-145.69;53.94;52274.06;5116614;28;20211;-79
2024/02/23 10:16:20;;;;;;;4.97;1.40;;;;;;;-145.69;54.53;52282.00;5116096;28;20201;-78
2024/02/23 10:18:46;;;;;;;4.70;1.70;;;;;;;-145.69;54.07;52274.06;5096512;28;20198;-80
2024/02/23 10:21:13;;;;;;;4.73;1.30;;;;;;;-145.69;52.04;52287.94;5096442;28;20193;-80
2024/02/23 10:23:39;;;;;;;8.53;1.37;;;;;;;-145.69;52.95;52303.78;5096424;28;20209;-80
2024/02/23 10:26:06;;;;;;;7.67;1.40;;;;;;;-145.69;49.25;52256.25;5096072;28;20206;-80
2024/02/23 10:28:35;;;;;;;6.67;1.20;;;;;;;-145.69;47.96;52285.97;5096288;28;20268;-79
2024/02/23 10:31:02;;;;;;;4.70;1.67;;;;;;;-145.69;50.20;52264.16;5096008;28;20234;-80
2024/02/23 10:33:30;;;;;;;8.00;1.50;;;;;;;-145.69;50.95;52274.06;5096475;28;20274;-80
2024/02/23 10:35:58;;;;;;;5.47;1.43;;;;;;;-145.69;47.23;52282.00;5096392;28;20209;-80
2024/02/23 10:38:25;;;;;;;5.73;1.47;;;;;;;-145.69;48.54;52230.50;5095999;28;20239;-78
2024/02/23 10:40:55;;;;;;;6.17;1.33;;;;;;;-145.69;47.49;52282.00;5096100;28;20678;-78
2024/02/23 10:43:30;;;;;;;6.77;1.50;;;;;;;-145.69;47.64;52264.16;5113167;28;20533;-78
2024/02/23 10:45:58;;;;;;;5.53;1.60;;;;;;;-145.69;48.53;52258.22;5116444;28;20234;-79
2024/02/23 10:48:25;;;;;;;4.40;1.90;;;;;;;-145.69;48.86;52272.09;5116391;28;20312;-79
2024/02/23 10:50:51;;;;;;;8.00;1.20;;;;;;;-145.69;47.36;52220.59;5116160;28;20236;-78
2024/02/23 10:53:20;;;;;;;7.10;1.20;;;;;;;-145.69;45.01;52291.91;5116271;28;20254;-79
2024/02/23 10:55:47;;;;;;;3.30;1.30;;;;;;;-145.69;44.94;52230.50;5116199;28;20594;-80
2024/02/23 10:58:15;;;;;;;4.93;1.40;;;;;;;-145.69;45.89;52262.19;5116309;28;20552;-81
2024/02/23 11:00:45;;;;;;;7.07;1.50;;;;;;;-145.69;44.73;52262.19;5116169;28;20257;-80
2024/02/23 11:03:15;;;;;;;4.77;1.23;;;;;;;-145.69;46.00;52226.53;5115771;28;20217;-81
2024/02/23 11:05:41;;;;;;;4.80;1.30;;;;;;;-145.69;45.34;52254.28;5115966;28;20648;-80
2024/02/23 11:08:09;;;;;;;5.33;1.27;;;;;;;-145.69;45.44;52260.22;5115571;28;20201;-81
2024/02/23 11:10:42;;;;;;;3.37;1.10;;;;;;;-145.69;45.65;52230.50;5115915;28;20205;-80
2024/02/23 11:13:09;;;;;;;7.43;1.77;;;;;;;-145.69;45.84;52246.34;5115693;28;20284;-79
2024/02/23 11:15:40;;;;;;;4.27;1.30;;;;;;;-145.69;45.38;52252.28;5115886;28;20212;-79